Brookhaven Weather

Current Time: 11:05 Zulu

HWV METARs

Local Time Temperature Dew Point Wind Direction Wind Speed Wind Gust Sky Vis.
5/24/2017 10:56:00 AM 12.8° c 12.8° c variable 0 kt - OVC 9500 ft AGL 4.0 sm
5/24/2017 9:56:00 AM 12.8° c 12.8° c variable 0 kt - OVC 10000 ft AGL 7.0 sm
5/24/2017 8:56:00 AM 12.8° c 12.8° c variable 0 kt - OVC 10000 ft AGL 6.0 sm
5/24/2017 7:56:00 AM 12.8° c 12.8° c variable 0 kt - BKN 4600 ft AGL 7.0 sm

ISP TAF:

KISP 240832Z 2409/2506 VRB05KT 6SM -RA SCT035 OVC070 
FM241100 04011G18KT 6SM -RA BKN030 OVC050 
FM241600 02011KT P6SM BKN030 OVC050 
FM241900 07007KT P6SM SCT035 OVC050 
FM250300 08008KT P6SM BKN020 OVC040
Weather data provided by aviationweather.gov. Pilots must verify weather before flying.